Aérodrome :
LOGIN :

S'inscrire | Disclaimer

   EN    FR    IT 

 










Légende :    VFR   VFR Marginal   IFR   IFR Intensif   IFR Très Intensif
Visi : 
Plafond : 
>= 8 km
>= 3000ft
5 à 8 km
1000 à 3000 ft
1500m à 5 km
500 à 1000 ft
800 à 1500m
200 à 500 ft
< 800m
< 200 ft
Symboles :   Orages  Brouillard  Fortes neiges  Fortes précipitations  Vent > 20 kt
SIGMETs :   Divers  Orages  Givrage  Turbulence  Onde Orograph.  Cendres Volcan.







- Altitude de l'aérodrome : 297 ft
- Code IATA : UIP
- Voir les cartes d'approche


LFRQ - Quimper Pluguffan

DERNIER METAR :
  • 242100Z AUTO 05004KT 9000 -RA NSC 16/15 Q1017 TEMPO 4000 SHRA BKN015TCU

METARs EXPIRÉS :
  • 242030Z AUTO 04005KT CAVOK 16/16 Q1017 TEMPO 4000 SHRA BKN015TCU
  • 242000Z AUTO 05004KT 9999 -RA NSC 16/16 Q1017 TEMPO 2500 TSRA BKN010CB
  • 241930Z AUTO 06005KT 9999 -RA NSC 17/16 Q1017 TEMPO 2500 TSRA BKN010CB
  • 241900Z AUTO 06006KT 9999 FEW041 BKN062 BKN074 17/16 Q1017 TEMPO 2500 TSRA BKN010CB
  • 241830Z AUTO 05005KT 9999 -RA FEW008 BKN035 BKN048 18/17 Q1017 TEMPO 2500 TSRA BKN010CB

TAF TAF LFRQ
Valide du 24 à 18h jusqu'au 25 à 18h UTC


241700Z 2418/2518 VRB05KT 9999 FEW020 BKN045
TEMPO 2418/2503 4000 SHRA BKN015TCU
PROB30
TEMPO 2418/2422 2500 TSRA BKN010CB
TEMPO 2503/2507 3000 BR BKN008
Pas de NOTAMs connus pour ce terrain.
2 SIGMETs publiés pour la FIR Brest (LFRR) :
 
Orages noyés dans la masse avec grêle
LFRR SIGMET 8 VALID 242300/250300 LFPW
LFRR BREST FIR/UIR EMBD TSGR FCST WI N5000 W00215 - N5000 W00200 - N5000 W00015 - N4830 W00015 - N4830 W00145 - N5000 W00215 TOP FL380 MOV NE 20KT NC=
Orages noyés dans la masse avec grêle
LFRR SIGMET 7 VALID 241900/242300 LFPW
LFRR BREST FIR/UIR EMBD TSGR FCST WI N4915 W00015 - N4715 W00015 - N4815 W00145 - N4915 W00015 TOP FL360 MOV N 20KT INTSF=



MET'MAP, la Météo Aéronautique d'un coup d'oeil ! - Copyright ORBIFLY Décembre 2007 - Disclaimer

ORBIFLY MET'MAP TEAM :

Programmation & Développement : Alexandra Zaïnal
Conception & Développement : Baudouin d'Aumeries
Co-Programmation & Développement : Marc-Olivier Méhu
Soutien technique & logistique : Manuel Goepfert

Contact : metmap@orbifly.com




SOURCES & CREDITS :

   NOAA